createdAt,value
2016-02-16T00:00:14.259Z,972.84
2016-02-16T00:01:14.246Z,972.8
2016-02-16T00:02:14.249Z,972.86
2016-02-16T00:03:14.252Z,972.87
2016-02-16T00:04:14.255Z,972.9
2016-02-16T00:05:14.258Z,972.91
2016-02-16T00:06:14.244Z,972.93
2016-02-16T00:07:14.247Z,972.98
2016-02-16T00:08:14.249Z,972.96
2016-02-16T00:09:14.252Z,973.01
2016-02-16T00:10:14.239Z,973.03
2016-02-16T00:11:14.242Z,973.07
2016-02-16T00:12:14.244Z,973.14
2016-02-16T00:13:14.247Z,973.14
2016-02-16T00:14:14.234Z,973.19
2016-02-16T00:15:14.237Z,973.27
2016-02-16T00:16:14.240Z,973.28
2016-02-16T00:17:14.243Z,973.34
2016-02-16T00:18:14.245Z,973.29
2016-02-16T00:19:14.248Z,973.38
2016-02-16T00:20:14.234Z,973.37
2016-02-16T00:21:14.238Z,973.4
2016-02-16T00:22:14.240Z,973.39
2016-02-16T00:23:14.243Z,973.38
2016-02-16T00:24:14.231Z,973.42
2016-02-16T00:25:14.233Z,973.4
2016-02-16T00:26:14.236Z,973.42
2016-02-16T00:27:14.239Z,973.38
2016-02-16T00:28:14.225Z,973.43
2016-02-16T00:29:14.228Z,973.44
2016-02-16T00:30:14.231Z,973.46
2016-02-16T00:31:14.233Z,973.53
2016-02-16T00:32:14.236Z,973.6
2016-02-16T00:33:14.222Z,973.51
2016-02-16T00:34:14.226Z,973.58
2016-02-16T00:35:14.228Z,973.61
2016-02-16T00:36:14.231Z,973.6
2016-02-16T00:37:14.233Z,973.59
2016-02-16T00:38:14.252Z,973.64
2016-02-16T00:39:14.224Z,973.66
2016-02-16T00:40:14.227Z,973.68
2016-02-16T00:41:14.244Z,973.67
2016-02-16T00:42:14.216Z,973.74
2016-02-16T00:43:14.235Z,973.73
2016-02-16T00:44:14.222Z,973.72
2016-02-16T00:45:14.224Z,973.75
2016-02-16T00:46:14.211Z,973.83
2016-02-16T00:47:14.213Z,973.81
2016-02-16T00:48:14.216Z,973.82
2016-02-16T00:49:14.219Z,973.82
2016-02-16T00:50:14.221Z,973.84
2016-02-16T00:51:14.209Z,973.86
2016-02-16T00:52:14.212Z,973.87
2016-02-16T00:53:14.214Z,973.86
2016-02-16T00:54:14.217Z,973.94
2016-02-16T00:55:14.220Z,973.89
2016-02-16T00:56:14.237Z,973.93
2016-02-16T00:57:14.210Z,973.92
2016-02-16T00:58:14.212Z,973.97
2016-02-16T00:59:14.214Z,974.01
2016-02-16T01:00:14.202Z,973.98
2016-02-16T01:01:14.205Z,973.99
2016-02-16T01:02:14.208Z,973.99
2016-02-16T01:03:14.211Z,973.99
2016-02-16T01:04:14.197Z,974.05
2016-02-16T01:05:14.231Z,974.11
2016-02-16T01:06:14.202Z,974.1
2016-02-16T01:07:14.205Z,974.1
2016-02-16T01:08:14.208Z,974.18
2016-02-16T01:09:14.195Z,974.18
2016-02-16T01:10:14.197Z,974.2
2016-02-16T01:11:14.199Z,974.18
2016-02-16T01:12:14.202Z,974.19
2016-02-16T01:13:14.205Z,974.23
2016-02-16T01:14:14.193Z,974.24
2016-02-16T01:15:14.196Z,974.19
2016-02-16T01:16:14.198Z,974.24
2016-02-16T01:17:14.185Z,974.25
2016-02-16T01:18:14.187Z,974.24
2016-02-16T01:19:14.190Z,974.25
2016-02-16T01:20:14.194Z,974.24
2016-02-16T01:21:14.180Z,974.27
2016-02-16T01:22:14.182Z,974.34
2016-02-16T01:23:14.185Z,974.28
2016-02-16T01:24:14.203Z,974.35
2016-02-16T01:25:14.191Z,974.37
2016-02-16T01:26:14.179Z,974.39
2016-02-16T01:27:14.181Z,974.41
2016-02-16T01:28:14.184Z,974.41
2016-02-16T01:29:14.186Z,974.42
2016-02-16T01:30:14.189Z,974.45
2016-02-16T01:31:14.176Z,974.45
2016-02-16T01:32:14.179Z,974.51
2016-02-16T01:33:14.181Z,974.48
2016-02-16T01:34:14.184Z,974.53
2016-02-16T01:35:14.186Z,974.51
2016-02-16T01:36:14.189Z,974.58
2016-02-16T01:37:14.176Z,974.55
2016-02-16T01:38:14.180Z,974.55
2016-02-16T01:39:14.182Z,974.54
2016-02-16T01:40:14.169Z,974.57
2016-02-16T01:41:14.171Z,974.55
2016-02-16T01:42:14.174Z,974.57
2016-02-16T01:43:14.177Z,974.59
2016-02-16T01:44:14.180Z,974.57
2016-02-16T01:45:14.167Z,974.55
2016-02-16T01:46:14.169Z,974.63
2016-02-16T01:47:14.171Z,974.62
2016-02-16T01:48:14.175Z,974.67
2016-02-16T01:49:14.162Z,974.6
2016-02-16T01:50:14.165Z,974.63
2016-02-16T01:51:14.168Z,974.64
2016-02-16T01:52:14.170Z,974.63
2016-02-16T01:53:14.173Z,974.66
2016-02-16T01:54:14.160Z,974.64
2016-02-16T01:55:14.178Z,974.63
2016-02-16T01:56:14.165Z,974.66
2016-02-16T01:57:14.152Z,974.62
2016-02-16T01:58:14.170Z,974.56
2016-02-16T01:59:14.157Z,974.62
2016-02-16T02:00:14.159Z,974.6
2016-02-16T02:01:14.162Z,974.6
2016-02-16T02:02:14.150Z,974.59
2016-02-16T02:03:14.153Z,974.62
2016-02-16T02:04:14.155Z,974.55
2016-02-16T02:05:14.159Z,974.55
2016-02-16T02:06:14.146Z,974.54
2016-02-16T02:07:14.149Z,974.58
2016-02-16T02:08:14.151Z,974.56
2016-02-16T02:09:14.154Z,974.58
2016-02-16T02:10:14.156Z,974.64
2016-02-16T02:11:14.145Z,974.62
2016-02-16T02:12:14.147Z,974.64
2016-02-16T02:13:14.150Z,974.67
2016-02-16T02:14:14.152Z,974.62
2016-02-16T02:15:14.155Z,974.71
2016-02-16T02:16:14.142Z,974.63
2016-02-16T02:17:14.144Z,974.66
2016-02-16T02:18:14.147Z,974.67
2016-02-16T02:19:14.150Z,974.65
2016-02-16T02:20:14.136Z,974.65
2016-02-16T02:21:14.139Z,974.67
2016-02-16T02:22:14.142Z,974.61
2016-02-16T02:23:14.144Z,974.64
2016-02-16T02:24:14.133Z,974.62
2016-02-16T02:25:14.135Z,974.6
2016-02-16T02:26:14.137Z,974.61
2016-02-16T02:27:14.140Z,974.67
2016-02-16T02:28:14.127Z,974.65
2016-02-16T02:29:14.130Z,974.64
2016-02-16T02:30:14.133Z,974.64
2016-02-16T02:31:14.135Z,974.67
2016-02-16T02:32:14.137Z,974.61
2016-02-16T02:33:14.124Z,974.69
2016-02-16T02:34:14.128Z,974.7
2016-02-16T02:35:14.130Z,974.68
2016-02-16T02:36:14.133Z,974.71
2016-02-16T02:37:14.135Z,974.71
2016-02-16T02:38:14.138Z,974.73
2016-02-16T02:39:14.125Z,974.66
2016-02-16T02:40:14.129Z,974.66
2016-02-16T02:41:14.131Z,974.67
2016-02-16T02:42:14.118Z,974.64
2016-02-16T02:43:14.136Z,974.66
2016-02-16T02:44:14.123Z,974.66
2016-02-16T02:45:14.125Z,974.66
2016-02-16T02:46:14.128Z,974.66
2016-02-16T02:47:14.132Z,974.68
2016-02-16T02:48:14.119Z,974.69
2016-02-16T02:49:14.121Z,974.67
2016-02-16T02:50:14.124Z,974.6
2016-02-16T02:51:14.126Z,974.66
2016-02-16T02:52:14.114Z,974.71
2016-02-16T02:53:14.117Z,974.65
2016-02-16T02:54:14.119Z,974.62
2016-02-16T02:55:14.121Z,974.66
2016-02-16T02:56:14.108Z,974.7
2016-02-16T02:57:14.111Z,974.64
2016-02-16T02:58:14.114Z,974.67
2016-02-16T02:59:14.117Z,974.67
2016-02-16T03:00:14.104Z,974.66
2016-02-16T03:01:14.107Z,974.68
2016-02-16T03:02:14.109Z,974.65
2016-02-16T03:03:14.112Z,974.64
2016-02-16T03:04:14.115Z,974.7
2016-02-16T03:05:14.124Z,974.66
2016-02-16T03:06:14.110Z,974.65
2016-02-16T03:07:14.097Z,974.67
2016-02-16T03:08:14.099Z,974.66
2016-02-16T03:09:14.103Z,974.65
2016-02-16T03:10:14.105Z,974.7
2016-02-16T03:11:14.093Z,974.67
2016-02-16T03:12:14.095Z,974.71
2016-02-16T03:13:14.098Z,974.67
2016-02-16T03:14:14.101Z,974.65
2016-02-16T03:15:14.104Z,974.69
2016-02-16T03:16:14.090Z,974.71
2016-02-16T03:17:14.093Z,974.73
2016-02-16T03:18:14.095Z,974.75
2016-02-16T03:19:14.098Z,974.75
2016-02-16T03:20:14.085Z,974.72
2016-02-16T03:21:14.088Z,974.77
2016-02-16T03:22:14.091Z,974.8
2016-02-16T03:23:14.093Z,974.78
2016-02-16T03:24:14.095Z,974.83
2016-02-16T03:25:14.083Z,974.86
2016-02-16T03:26:14.086Z,974.88
2016-02-16T03:27:14.089Z,974.84
2016-02-16T03:28:14.092Z,974.96
2016-02-16T03:29:14.094Z,974.99
2016-02-16T03:30:14.080Z,974.97
2016-02-16T03:31:14.083Z,975
2016-02-16T03:32:14.086Z,975.02
2016-02-16T03:33:14.089Z,975.02
2016-02-16T03:34:14.092Z,975.04
2016-02-16T03:35:14.079Z,975.03
2016-02-16T03:36:14.082Z,975.03
2016-02-16T03:37:14.084Z,975.04
2016-02-16T03:38:14.088Z,975.09
2016-02-16T03:39:14.074Z,975.1
2016-02-16T03:40:14.077Z,975.14
2016-02-16T03:41:14.079Z,975.08
2016-02-16T03:42:14.082Z,975.1
2016-02-16T03:43:14.068Z,975.05
2016-02-16T03:44:14.071Z,975.1
2016-02-16T03:45:14.074Z,975.07
2016-02-16T03:46:14.077Z,975.07
2016-02-16T03:47:14.064Z,975.09
2016-02-16T03:48:14.067Z,975.1
2016-02-16T03:49:14.069Z,975.16
2016-02-16T03:50:14.073Z,975.09
2016-02-16T03:51:14.076Z,975.13
2016-02-16T03:52:14.062Z,975.15
2016-02-16T03:53:14.064Z,975.18
2016-02-16T03:54:14.067Z,975.2
2016-02-16T03:55:14.070Z,975.17
2016-02-16T03:56:14.073Z,975.18
2016-02-16T03:57:14.060Z,975.23
2016-02-16T03:58:14.062Z,975.26
2016-02-16T03:59:14.064Z,975.2
2016-02-16T04:00:14.067Z,975.26
2016-02-16T04:01:14.055Z,975.24
2016-02-16T04:02:14.058Z,975.32
2016-02-16T04:03:14.061Z,975.26
2016-02-16T04:04:14.063Z,975.28
2016-02-16T04:05:14.050Z,975.27
2016-02-16T04:06:14.052Z,975.28
2016-02-16T04:07:14.055Z,975.33
2016-02-16T04:08:14.058Z,975.3
2016-02-16T04:09:14.045Z,975.3
2016-02-16T04:10:14.048Z,975.31
2016-02-16T04:11:14.051Z,975.32
2016-02-16T04:12:14.054Z,975.29
2016-02-16T04:13:14.057Z,975.31
2016-02-16T04:14:14.043Z,975.35
2016-02-16T04:15:14.045Z,975.33
2016-02-16T04:16:14.049Z,975.33
2016-02-16T04:17:14.051Z,975.32
2016-02-16T04:18:14.038Z,975.36
2016-02-16T04:19:14.041Z,975.3
2016-02-16T04:20:14.043Z,975.25
2016-02-16T04:21:14.046Z,975.31
2016-02-16T04:22:14.049Z,975.34
2016-02-16T04:23:14.052Z,975.32
2016-02-16T04:24:14.039Z,975.34
2016-02-16T04:25:14.041Z,975.35
2016-02-16T04:26:14.045Z,975.37
2016-02-16T04:27:14.031Z,975.41
2016-02-16T04:28:14.034Z,975.4
2016-02-16T04:29:14.037Z,975.42
2016-02-16T04:30:14.039Z,975.47
2016-02-16T04:31:14.023Z,975.49
2016-02-16T04:32:14.014Z,975.43
2016-02-16T04:33:14.003Z,975.42
2016-02-16T04:34:13.992Z,975.46
2016-02-16T04:35:13.967Z,975.46
2016-02-16T04:36:13.958Z,975.5
2016-02-16T04:37:13.956Z,975.51
2016-02-16T04:38:13.954Z,975.5
2016-02-16T04:39:13.951Z,975.52
2016-02-16T04:40:13.933Z,975.55
2016-02-16T04:41:13.932Z,975.6
2016-02-16T04:42:13.949Z,975.56
2016-02-16T04:43:13.934Z,975.56
2016-02-16T04:44:13.935Z,975.57
2016-02-16T04:45:13.920Z,975.58
2016-02-16T04:46:13.923Z,975.63
2016-02-16T04:47:13.924Z,975.61
2016-02-16T04:48:13.926Z,975.65
2016-02-16T04:49:13.912Z,975.69
2016-02-16T04:50:13.914Z,975.68
2016-02-16T04:51:13.916Z,975.7
2016-02-16T04:52:13.919Z,975.75
2016-02-16T04:53:13.906Z,975.77
2016-02-16T04:54:13.908Z,975.8
2016-02-16T04:55:13.910Z,975.82
2016-02-16T04:56:13.913Z,975.87
2016-02-16T04:57:13.916Z,975.86
2016-02-16T04:58:13.903Z,975.84
2016-02-16T04:59:13.906Z,975.88
2016-02-16T05:00:13.909Z,975.87
2016-02-16T05:01:13.912Z,975.92
2016-02-16T05:02:13.898Z,975.94
2016-02-16T05:03:13.901Z,975.96
2016-02-16T05:04:13.904Z,975.98
2016-02-16T05:05:13.907Z,975.96
2016-02-16T05:06:13.894Z,976
2016-02-16T05:07:13.896Z,976
2016-02-16T05:08:13.898Z,976
2016-02-16T05:09:13.902Z,976.02
2016-02-16T05:10:13.889Z,976.09
2016-02-16T05:11:13.892Z,976.08
2016-02-16T05:12:13.894Z,976.12
2016-02-16T05:13:13.897Z,976.12
2016-02-16T05:14:13.900Z,976.14
2016-02-16T05:15:13.887Z,976.15
2016-02-16T05:16:13.889Z,976.22
2016-02-16T05:17:13.892Z,976.21
2016-02-16T05:18:13.895Z,976.17
2016-02-16T05:19:13.882Z,976.17
2016-02-16T05:20:13.885Z,976.2
2016-02-16T05:21:13.887Z,976.2
2016-02-16T05:22:13.890Z,976.26
2016-02-16T05:23:13.893Z,976.26
2016-02-16T05:24:13.880Z,976.22
2016-02-16T05:25:13.883Z,976.21
2016-02-16T05:26:13.885Z,976.22
2016-02-16T05:27:13.872Z,976.28
2016-02-16T05:28:13.891Z,976.23
2016-02-16T05:29:13.877Z,976.3
2016-02-16T05:30:13.880Z,976.27
2016-02-16T05:31:13.883Z,976.27
2016-02-16T05:32:13.886Z,976.34
2016-02-16T05:33:13.873Z,976.34
2016-02-16T05:34:13.875Z,976.36
2016-02-16T05:35:13.878Z,976.35
2016-02-16T05:36:13.865Z,976.36
2016-02-16T05:37:13.868Z,976.35
2016-02-16T05:38:13.871Z,976.38
2016-02-16T05:39:13.873Z,976.39
2016-02-16T05:40:13.875Z,976.35
2016-02-16T05:41:13.863Z,976.41
2016-02-16T05:42:13.865Z,976.41
2016-02-16T05:43:13.867Z,976.4
2016-02-16T05:44:13.870Z,976.43
2016-02-16T05:45:13.858Z,976.37
2016-02-16T05:46:13.861Z,976.37
2016-02-16T05:47:13.879Z,976.4
2016-02-16T05:48:13.867Z,976.44
2016-02-16T05:49:13.869Z,976.46
2016-02-16T05:50:13.855Z,976.42
2016-02-16T05:51:13.858Z,976.43
2016-02-16T05:52:13.861Z,976.51
2016-02-16T05:53:13.864Z,976.47
2016-02-16T05:54:13.851Z,976.5
2016-02-16T05:55:13.854Z,976.49
2016-02-16T05:56:13.857Z,976.45
2016-02-16T05:57:13.859Z,976.53
2016-02-16T05:58:13.847Z,976.49
2016-02-16T05:59:13.849Z,976.53
2016-02-16T06:00:13.851Z,976.49
2016-02-16T06:01:13.855Z,976.5
2016-02-16T06:02:13.841Z,976.51
2016-02-16T06:03:13.844Z,976.51
2016-02-16T06:04:13.846Z,976.51
2016-02-16T06:05:13.850Z,976.49
2016-02-16T06:06:13.838Z,976.53
2016-02-16T06:07:13.855Z,976.51
2016-02-16T06:08:13.858Z,976.53
2016-02-16T06:09:13.846Z,976.6
2016-02-16T06:10:13.832Z,976.52
2016-02-16T06:11:13.835Z,976.55
2016-02-16T06:12:13.838Z,976.53
2016-02-16T06:13:13.840Z,976.6
2016-02-16T06:14:13.843Z,976.61
2016-02-16T06:15:13.846Z,976.61
2016-02-16T06:16:13.833Z,976.58
2016-02-16T06:17:13.835Z,976.66
2016-02-16T06:18:13.838Z,976.63
2016-02-16T06:19:13.841Z,976.69
2016-02-16T06:20:13.828Z,976.7
2016-02-16T06:21:13.831Z,976.71
2016-02-16T06:22:13.833Z,976.77
2016-02-16T06:23:13.837Z,976.74
2016-02-16T06:24:13.823Z,976.75
2016-02-16T06:25:13.826Z,976.78
2016-02-16T06:26:13.828Z,976.8
2016-02-16T06:27:13.831Z,976.79
2016-02-16T06:28:13.834Z,976.84
2016-02-16T06:29:13.820Z,976.89
2016-02-16T06:30:13.855Z,976.9
2016-02-16T06:31:13.826Z,976.91
2016-02-16T06:32:13.828Z,976.88
2016-02-16T06:33:13.817Z,976.91
2016-02-16T06:34:13.819Z,976.93
2016-02-16T06:35:13.822Z,977.12
2016-02-16T06:36:13.825Z,976.96
2016-02-16T06:37:13.828Z,977
2016-02-16T06:38:13.813Z,976.98
2016-02-16T06:39:13.817Z,977.01
2016-02-16T06:40:13.819Z,976.96
2016-02-16T06:41:13.822Z,976.97
2016-02-16T06:42:13.809Z,977.07
2016-02-16T06:43:13.812Z,977.07
2016-02-16T06:44:13.815Z,977.05
2016-02-16T06:45:13.817Z,977.06
2016-02-16T06:46:13.804Z,977.06
2016-02-16T06:47:13.807Z,977.07
2016-02-16T06:48:13.809Z,977.14
2016-02-16T06:49:13.813Z,977.24
2016-02-16T06:50:13.799Z,977.12
2016-02-16T06:51:13.802Z,977.13
2016-02-16T06:52:13.804Z,977.13
2016-02-16T06:53:13.807Z,977.1
2016-02-16T06:54:13.795Z,977.13
2016-02-16T06:55:13.798Z,977.08
2016-02-16T06:56:13.801Z,977.06
2016-02-16T06:57:13.803Z,977.11
2016-02-16T06:58:13.806Z,977.18
2016-02-16T06:59:13.792Z,977.19
2016-02-16T07:00:13.795Z,977.11
2016-02-16T07:01:13.798Z,977.24
2016-02-16T07:02:13.800Z,977.13
2016-02-16T07:03:13.787Z,977.17
2016-02-16T07:04:13.790Z,977.23
2016-02-16T07:05:13.792Z,977.21
2016-02-16T07:06:13.795Z,977.23
2016-02-16T07:07:13.783Z,977.24
2016-02-16T07:08:13.785Z,977.19
2016-02-16T07:09:13.788Z,977.25
2016-02-16T07:10:13.791Z,977.33
2016-02-16T07:11:13.778Z,977.36
2016-02-16T07:12:13.780Z,977.29
2016-02-16T07:13:13.783Z,977.36
2016-02-16T07:14:13.786Z,977.43
2016-02-16T07:15:13.788Z,977.49
2016-02-16T07:16:13.791Z,977.43
2016-02-16T07:17:13.872Z,977.44
2016-02-16T07:18:13.781Z,977.5
2016-02-16T07:19:13.784Z,977.42
2016-02-16T07:20:13.771Z,977.47
2016-02-16T07:21:13.773Z,977.55
2016-02-16T07:22:13.776Z,977.46
2016-02-16T07:23:13.778Z,977.48
2016-02-16T07:24:13.782Z,977.58
2016-02-16T07:25:13.768Z,977.43
2016-02-16T07:26:13.771Z,977.44
2016-02-16T07:27:13.774Z,977.4
2016-02-16T07:28:13.777Z,977.36
2016-02-16T07:29:13.764Z,977.36
2016-02-16T07:30:13.767Z,977.48
2016-02-16T07:31:13.770Z,977.38
2016-02-16T07:32:13.772Z,977.46
2016-02-16T07:33:13.759Z,977.46
2016-02-16T07:34:13.761Z,977.45
2016-02-16T07:35:13.764Z,977.47
2016-02-16T07:36:13.767Z,977.46
2016-02-16T07:37:13.769Z,977.45
2016-02-16T07:38:13.756Z,977.52
2016-02-16T07:39:13.759Z,977.49
2016-02-16T07:40:13.778Z,977.46
2016-02-16T07:41:13.764Z,977.49
2016-02-16T07:42:13.752Z,977.49
2016-02-16T07:43:13.754Z,977.53
2016-02-16T07:44:13.758Z,977.5
2016-02-16T07:45:13.760Z,977.51
2016-02-16T07:46:13.763Z,977.49
2016-02-16T07:47:13.749Z,977.57
2016-02-16T07:48:13.752Z,977.56
2016-02-16T07:49:13.755Z,977.54
2016-02-16T07:50:13.758Z,977.48
2016-02-16T07:51:13.745Z,977.56
2016-02-16T07:52:13.748Z,977.54
2016-02-16T07:53:13.751Z,977.51
2016-02-16T07:54:13.753Z,977.64
2016-02-16T07:55:13.756Z,977.59
2016-02-16T07:56:13.743Z,977.62
2016-02-16T07:57:13.745Z,977.65
2016-02-16T07:58:13.748Z,977.6
2016-02-16T07:59:13.751Z,977.61
2016-02-16T08:00:13.737Z,977.64
2016-02-16T08:01:13.740Z,977.65
2016-02-16T08:02:13.743Z,977.67
2016-02-16T08:03:13.745Z,977.73
2016-02-16T08:04:13.749Z,977.64
2016-02-16T08:05:13.736Z,977.68
2016-02-16T08:06:13.739Z,977.64
2016-02-16T08:07:13.741Z,977.7
2016-02-16T08:08:13.744Z,977.68
2016-02-16T08:09:13.730Z,977.69
2016-02-16T08:10:13.734Z,977.64
2016-02-16T08:11:13.736Z,977.8
2016-02-16T08:12:13.739Z,977.64
2016-02-16T08:13:13.726Z,977.67
2016-02-16T08:14:13.729Z,977.65
2016-02-16T08:15:13.731Z,977.67
2016-02-16T08:16:13.733Z,977.7
2016-02-16T08:17:13.736Z,977.68
2016-02-16T08:18:13.724Z,977.74
2016-02-16T08:19:13.727Z,977.7
2016-02-16T08:20:13.729Z,977.69
2016-02-16T08:21:13.732Z,977.77
2016-02-16T08:22:13.718Z,977.69
2016-02-16T08:23:13.721Z,977.68
2016-02-16T08:24:13.724Z,977.69
2016-02-16T08:25:13.727Z,977.6
2016-02-16T08:26:13.714Z,977.76
2016-02-16T08:27:13.717Z,977.62
2016-02-16T08:28:13.720Z,977.8
2016-02-16T08:29:13.723Z,977.69
2016-02-16T08:30:13.725Z,977.7
2016-02-16T08:31:13.728Z,977.77
2016-02-16T08:32:13.714Z,977.64
2016-02-16T08:33:13.717Z,977.74
2016-02-16T08:34:13.720Z,977.79
2016-02-16T08:35:13.722Z,977.68
2016-02-16T08:36:13.709Z,977.65
2016-02-16T08:37:13.712Z,977.8
2016-02-16T08:38:13.715Z,977.79
2016-02-16T08:39:13.733Z,977.75
2016-02-16T08:40:13.720Z,977.73
2016-02-16T08:41:13.708Z,977.78
2016-02-16T08:42:13.710Z,977.82
2016-02-16T08:43:13.713Z,977.94
2016-02-16T08:44:13.716Z,977.82
2016-02-16T08:45:13.718Z,977.9
2016-02-16T08:46:13.706Z,977.88
2016-02-16T08:47:13.708Z,977.9
2016-02-16T08:48:13.711Z,977.91
2016-02-16T08:49:13.714Z,977.87
2016-02-16T08:50:13.700Z,977.85
2016-02-16T08:51:13.718Z,977.89
2016-02-16T08:52:13.705Z,977.92
2016-02-16T08:53:13.708Z,977.94
2016-02-16T08:54:13.711Z,977.9
2016-02-16T08:55:13.698Z,977.97
2016-02-16T08:56:13.701Z,977.91
2016-02-16T08:57:13.719Z,977.9
2016-02-16T08:58:13.706Z,977.99
2016-02-16T08:59:13.710Z,978.02
2016-02-16T09:00:13.696Z,978.08
2016-02-16T09:01:13.699Z,978.17
2016-02-16T09:02:13.701Z,978.19
2016-02-16T09:03:13.704Z,978.22
2016-02-16T09:04:13.706Z,978.21
2016-02-16T09:05:13.694Z,978.17
2016-02-16T09:06:13.697Z,978.19
2016-02-16T09:07:13.700Z,978.21
2016-02-16T09:08:13.717Z,978.17
2016-02-16T09:09:13.705Z,978.24
2016-02-16T09:10:13.692Z,978.19
2016-02-16T09:11:13.695Z,978.15
2016-02-16T09:12:13.697Z,978.16
2016-02-16T09:13:13.700Z,978.13
2016-02-16T09:14:13.703Z,978.17
2016-02-16T09:15:13.705Z,978.2
2016-02-16T09:16:13.692Z,978.16
2016-02-16T09:17:13.694Z,978.17
2016-02-16T09:18:13.697Z,978.17
2016-02-16T09:19:13.700Z,978.24
2016-02-16T09:20:13.702Z,978.18
2016-02-16T09:21:13.691Z,978.18
2016-02-16T09:22:13.693Z,978.26
2016-02-16T09:23:13.696Z,978.21
2016-02-16T09:24:13.714Z,978.19
2016-02-16T09:25:13.685Z,978.25
2016-02-16T09:26:13.688Z,978.23
2016-02-16T09:27:13.691Z,978.26
2016-02-16T09:28:13.959Z,978.25
2016-02-16T09:29:13.696Z,978.26
2016-02-16T09:30:13.699Z,978.29
2016-02-16T09:31:13.685Z,978.26
2016-02-16T09:32:13.688Z,978.25
2016-02-16T09:33:13.691Z,978.32
2016-02-16T09:34:13.694Z,978.23
2016-02-16T09:35:13.696Z,978.18
2016-02-16T09:36:13.684Z,978.19
2016-02-16T09:37:13.687Z,978.3
2016-02-16T09:38:13.690Z,978.25
2016-02-16T09:39:13.692Z,978.28
2016-02-16T09:40:13.695Z,978.26
2016-02-16T09:41:13.681Z,978.29
2016-02-16T09:42:13.684Z,978.31
2016-02-16T09:43:13.687Z,978.35
2016-02-16T09:44:13.690Z,978.32
2016-02-16T09:45:13.692Z,978.29
2016-02-16T09:46:13.695Z,978.28
2016-02-16T09:47:13.682Z,978.29
2016-02-16T09:48:13.685Z,978.31
2016-02-16T09:49:13.687Z,978.4
2016-02-16T09:50:13.691Z,978.32
2016-02-16T09:51:13.694Z,978.37
2016-02-16T09:52:13.680Z,978.35
2016-02-16T09:53:13.683Z,978.31
2016-02-16T09:54:13.685Z,978.31
2016-02-16T09:55:13.688Z,978.33
2016-02-16T09:56:13.690Z,978.28
2016-02-16T09:57:13.677Z,978.27
2016-02-16T09:58:13.680Z,978.29
2016-02-16T09:59:13.683Z,978.29
2016-02-16T10:00:13.686Z,978.31
2016-02-16T10:01:13.688Z,978.26
2016-02-16T10:02:13.676Z,978.28
2016-02-16T10:03:13.678Z,978.22
2016-02-16T10:04:13.681Z,978.26
2016-02-16T10:05:13.715Z,978.28
2016-02-16T10:06:13.687Z,978.21
2016-02-16T10:07:13.689Z,978.27
2016-02-16T10:08:13.676Z,978.23
2016-02-16T10:09:13.678Z,978.21
2016-02-16T10:10:13.681Z,978.23
2016-02-16T10:11:13.684Z,978.22
2016-02-16T10:12:13.686Z,978.28
2016-02-16T10:13:13.690Z,978.26
2016-02-16T10:14:13.693Z,978.26
2016-02-16T10:15:13.679Z,978.29
2016-02-16T10:16:13.682Z,978.19
2016-02-16T10:17:13.684Z,978.27
2016-02-16T10:18:13.687Z,978.25
2016-02-16T10:19:13.675Z,978.22
2016-02-16T10:20:13.678Z,978.24
2016-02-16T10:21:13.680Z,978.23
2016-02-16T10:22:13.683Z,978.24
2016-02-16T10:23:13.685Z,978.32
2016-02-16T10:24:13.688Z,978.24
2016-02-16T10:25:13.674Z,978.26
2016-02-16T10:26:13.677Z,978.25
2016-02-16T10:27:13.680Z,978.29
2016-02-16T10:28:13.683Z,978.25
2016-02-16T10:29:13.686Z,978.29
2016-02-16T10:30:13.688Z,978.28
2016-02-16T10:31:13.676Z,978.25
2016-02-16T10:32:13.678Z,978.25
2016-02-16T10:33:13.681Z,978.23
2016-02-16T10:34:13.683Z,978.24
2016-02-16T10:35:13.671Z,978.22
2016-02-16T10:36:13.674Z,978.26
2016-02-16T10:37:13.676Z,978.17
2016-02-16T10:38:13.678Z,978.2
2016-02-16T10:39:13.681Z,978.2
2016-02-16T10:40:13.684Z,978.19
2016-02-16T10:41:13.686Z,978.2
2016-02-16T10:42:13.689Z,978.21
2016-02-16T10:43:13.676Z,978.18
2016-02-16T10:44:13.679Z,978.16
2016-02-16T10:45:13.682Z,978.14
2016-02-16T10:46:13.684Z,978.17
2016-02-16T10:47:13.671Z,978.29
2016-02-16T10:48:13.675Z,978.18
2016-02-16T10:49:13.678Z,978.13
2016-02-16T10:50:13.680Z,978.12
2016-02-16T10:51:13.683Z,978.13
2016-02-16T10:52:13.685Z,978.14
2016-02-16T10:53:13.672Z,978.12
2016-02-16T10:54:13.674Z,978.04
2016-02-16T10:55:13.677Z,978.1
2016-02-16T10:56:13.681Z,978.12
2016-02-16T10:57:13.683Z,978.09
2016-02-16T10:58:13.686Z,978.1
2016-02-16T10:59:13.688Z,978.18
2016-02-16T11:00:13.675Z,978.11
2016-02-16T11:01:13.677Z,978.04
2016-02-16T11:02:13.681Z,978.08
2016-02-16T11:03:13.683Z,978.15
2016-02-16T11:04:13.671Z,978.14
2016-02-16T11:05:13.688Z,978.17
2016-02-16T11:06:13.676Z,978.13
2016-02-16T11:07:13.678Z,978.2
2016-02-16T11:08:13.682Z,978.21
2016-02-16T11:09:13.684Z,978.17
2016-02-16T11:10:13.687Z,978.21
2016-02-16T11:11:13.674Z,978.18
2016-02-16T11:12:13.676Z,978.21
2016-02-16T11:13:13.679Z,978.1
2016-02-16T11:14:13.681Z,978.18
2016-02-16T11:15:13.684Z,978.16
2016-02-16T11:16:13.671Z,978.22
2016-02-16T11:17:13.675Z,978.14
2016-02-16T11:18:13.678Z,978.13
2016-02-16T11:19:13.680Z,978.1
2016-02-16T11:20:13.683Z,978.12
2016-02-16T11:21:13.685Z,978.13
2016-02-16T11:22:13.672Z,978.13
2016-02-16T11:23:13.675Z,978.11
2016-02-16T11:24:13.678Z,978.05
2016-02-16T11:25:13.680Z,978.14
2016-02-16T11:26:13.699Z,978.08
2016-02-16T11:27:13.670Z,978.11
2016-02-16T11:28:16.458Z,978.11
2016-02-16T11:29:13.680Z,978.06
2016-02-16T11:30:13.682Z,978.08
2016-02-16T11:31:13.685Z,978.09
2016-02-16T11:32:13.673Z,978.06
2016-02-16T11:33:13.675Z,978.05
2016-02-16T11:34:13.678Z,978.08
2016-02-16T11:35:13.681Z,978.03
2016-02-16T11:36:13.683Z,978.02
2016-02-16T11:37:13.686Z,978.02
2016-02-16T11:38:13.673Z,978.12
2016-02-16T11:39:13.676Z,978.07
2016-02-16T11:40:13.679Z,978.06
2016-02-16T11:41:13.681Z,978.02
2016-02-16T11:42:13.684Z,978
2016-02-16T11:43:13.670Z,978.08
2016-02-16T11:44:13.673Z,978.05
2016-02-16T11:45:13.676Z,978.09
2016-02-16T11:46:13.679Z,978.12
2016-02-16T11:47:13.681Z,978.07
2016-02-16T11:48:13.684Z,978.1
2016-02-16T11:49:13.686Z,978.12
2016-02-16T11:50:13.674Z,978.11
2016-02-16T11:51:13.677Z,978.13
2016-02-16T11:52:13.680Z,978.14
2016-02-16T11:53:13.682Z,978.06
2016-02-16T11:54:13.685Z,978.11
2016-02-16T11:55:13.688Z,978.13
2016-02-16T11:56:13.674Z,978.13
2016-02-16T11:57:13.677Z,978.12
2016-02-16T11:58:13.680Z,978.18
2016-02-16T11:59:13.683Z,978.1
2016-02-16T12:00:13.669Z,978.17
2016-02-16T12:01:13.672Z,978.07
2016-02-16T12:02:13.674Z,978.02
2016-02-16T12:03:13.678Z,978.04
2016-02-16T12:04:13.680Z,978.05
2016-02-16T12:05:13.679Z,978.03
2016-02-16T12:06:13.675Z,978.09
2016-02-16T12:07:13.679Z,977.99
2016-02-16T12:08:13.681Z,977.97
2016-02-16T12:09:13.684Z,977.94
2016-02-16T12:10:13.687Z,977.93
2016-02-16T12:11:13.674Z,977.94
2016-02-16T12:12:13.676Z,977.92
2016-02-16T12:13:13.679Z,977.93
2016-02-16T12:14:13.682Z,977.94
2016-02-16T12:15:13.669Z,977.91
2016-02-16T12:16:13.671Z,978
2016-02-16T12:17:13.674Z,977.94
2016-02-16T12:18:13.677Z,977.93
2016-02-16T12:19:13.679Z,978.04
2016-02-16T12:20:13.682Z,977.98
2016-02-16T12:21:13.669Z,977.93
2016-02-16T12:22:13.703Z,978
2016-02-16T12:23:13.676Z,977.92
2016-02-16T12:24:13.678Z,977.91
2016-02-16T12:25:13.681Z,977.98
2016-02-16T12:26:13.683Z,977.96
2016-02-16T12:27:13.669Z,977.95
2016-02-16T12:28:13.673Z,978
2016-02-16T12:29:13.675Z,977.89
2016-02-16T12:30:13.678Z,978.07
2016-02-16T12:31:13.681Z,978